createdAt,value
2023-01-20T00:01:47.886Z,51.36
2023-01-20T00:04:15.618Z,51.11
2023-01-20T00:06:42.910Z,51.38
2023-01-20T00:09:14.391Z,51.12
2023-01-20T00:11:41.643Z,50.53
2023-01-20T00:14:09.445Z,50.48
2023-01-20T00:16:36.580Z,50.49
2023-01-20T00:19:03.890Z,50.09
2023-01-20T00:21:31.151Z,49.75
2023-01-20T00:23:58.374Z,49.32
2023-01-20T00:26:25.772Z,49.34
2023-01-20T00:28:56.265Z,49.24
2023-01-20T00:31:28.430Z,49.10
2023-01-20T00:33:57.673Z,48.92
2023-01-20T00:36:25.488Z,49.10
2023-01-20T00:38:52.687Z,49.41
2023-01-20T00:41:19.927Z,49.32
2023-01-20T00:43:47.315Z,49.27
2023-01-20T00:46:14.494Z,48.72
2023-01-20T00:48:41.749Z,48.60
2023-01-20T00:51:09.465Z,48.95
2023-01-20T00:53:36.832Z,48.88
2023-01-20T00:56:04.461Z,48.86
2023-01-20T00:58:31.674Z,49.11
2023-01-20T01:00:59.208Z,48.99
2023-01-20T01:03:28.304Z,48.93
2023-01-20T01:05:55.634Z,49.21
2023-01-20T01:08:22.791Z,49.24
2023-01-20T01:10:49.972Z,49.12
2023-01-20T01:13:16.995Z,49.36
2023-01-20T01:15:50.309Z,49.28
2023-01-20T01:18:17.767Z,48.89
2023-01-20T01:20:45.323Z,49.05
2023-01-20T01:23:12.927Z,48.85
2023-01-20T01:25:40.135Z,48.94
2023-01-20T01:28:07.401Z,48.91
2023-01-20T01:30:34.699Z,48.78
2023-01-20T01:33:01.995Z,48.93
2023-01-20T01:35:29.269Z,49.23
2023-01-20T01:37:56.498Z,49.07
2023-01-20T01:40:23.652Z,48.81
2023-01-20T01:42:50.872Z,48.68
2023-01-20T01:45:23.015Z,48.99
2023-01-20T01:48:02.667Z,49.49
2023-01-20T01:50:40.154Z,49.08
2023-01-20T01:53:07.622Z,48.78
2023-01-20T01:55:36.905Z,48.63
2023-01-20T01:58:04.176Z,48.70
2023-01-20T02:00:31.395Z,48.69
2023-01-20T02:02:58.574Z,48.61
2023-01-20T02:05:26.132Z,48.25
2023-01-20T02:07:53.500Z,48.30
2023-01-20T02:10:20.679Z,48.45
2023-01-20T02:12:49.753Z,48.18
2023-01-20T02:15:18.373Z,48.36
2023-01-20T02:18:01.398Z,48.40
2023-01-20T02:20:54.876Z,48.50
2023-01-20T02:23:35.566Z,48.53
2023-01-20T02:26:24.830Z,48.16
2023-01-20T02:28:52.209Z,48.26
2023-01-20T02:31:25.826Z,48.45
2023-01-20T02:33:59.088Z,48.59
2023-01-20T02:36:51.784Z,48.37
2023-01-20T02:39:29.204Z,48.67
2023-01-20T02:42:08.962Z,48.82
2023-01-20T02:44:44.613Z,49.23
2023-01-20T02:47:13.373Z,49.47
2023-01-20T02:49:55.321Z,48.99
2023-01-20T02:52:31.553Z,48.94
2023-01-20T02:55:02.016Z,49.35
2023-01-20T02:57:32.246Z,49.59
2023-01-20T03:00:04.204Z,49.22
2023-01-20T03:02:31.518Z,49.77
2023-01-20T03:05:02.243Z,49.39
2023-01-20T03:07:29.902Z,50.11
2023-01-20T03:09:58.001Z,49.76
2023-01-20T03:12:29.647Z,50.39
2023-01-20T03:14:56.802Z,50.33
2023-01-20T03:17:23.989Z,50.39
2023-01-20T03:19:51.056Z,50.55
2023-01-20T03:22:18.211Z,50.42
2023-01-20T03:24:45.408Z,49.70
2023-01-20T03:27:12.632Z,49.62
2023-01-20T03:29:39.845Z,49.14
2023-01-20T03:32:08.702Z,48.85
2023-01-20T03:34:36.829Z,48.68
2023-01-20T03:37:04.109Z,48.38
2023-01-20T03:39:32.067Z,48.62
2023-01-20T03:42:11.210Z,48.79
2023-01-20T03:44:38.368Z,48.22
2023-01-20T03:47:28.674Z,48.49
2023-01-20T03:50:07.979Z,48.58
2023-01-20T03:52:47.629Z,48.39
2023-01-20T03:55:23.468Z,48.20
2023-01-20T03:58:12.379Z,47.93
2023-01-20T04:00:44.084Z,48.04
2023-01-20T04:03:31.242Z,48.08
2023-01-20T04:06:02.828Z,48.13
2023-01-20T04:08:32.223Z,48.04
2023-01-20T04:11:00.237Z,48.09
2023-01-20T04:13:29.481Z,48.22
2023-01-20T04:15:56.740Z,48.42
2023-01-20T04:18:23.956Z,48.32
2023-01-20T04:20:59.422Z,48.36
2023-01-20T04:23:40.188Z,48.78
2023-01-20T04:26:07.344Z,48.55
2023-01-20T04:28:34.354Z,48.40
2023-01-20T04:31:01.813Z,48.44
2023-01-20T04:33:29.004Z,48.46
2023-01-20T04:35:56.198Z,48.44
2023-01-20T04:38:23.406Z,48.31
2023-01-20T04:40:50.550Z,48.21
2023-01-20T04:43:19.228Z,47.94
2023-01-20T04:45:46.383Z,47.60
2023-01-20T04:48:13.643Z,47.00
2023-01-20T04:50:41.351Z,47.03
2023-01-20T04:53:13.984Z,46.73
2023-01-20T04:55:41.108Z,46.87
2023-01-20T04:58:10.164Z,46.54
2023-01-20T05:00:37.439Z,46.35
2023-01-20T05:03:06.526Z,46.53
2023-01-20T05:05:33.761Z,46.72
2023-01-20T05:08:01.072Z,46.82
2023-01-20T05:10:28.245Z,47.14
2023-01-20T05:12:55.467Z,47.00
2023-01-20T05:15:23.140Z,46.98
2023-01-20T05:17:50.305Z,46.92
2023-01-20T05:20:19.287Z,46.97
2023-01-20T05:22:47.930Z,47.31
2023-01-20T05:25:15.556Z,47.26
2023-01-20T05:27:43.117Z,47.19
2023-01-20T05:30:11.487Z,47.31
2023-01-20T05:32:38.761Z,47.01
2023-01-20T05:35:08.750Z,46.65
2023-01-20T05:37:35.976Z,46.72
2023-01-20T05:40:03.837Z,46.82
2023-01-20T05:42:33.073Z,46.88
2023-01-20T05:45:00.264Z,46.67
2023-01-20T05:47:27.446Z,46.50
2023-01-20T05:49:54.711Z,46.55
2023-01-20T05:52:21.968Z,46.59
2023-01-20T05:54:49.198Z,46.36
2023-01-20T05:57:18.565Z,46.08
2023-01-20T05:59:49.869Z,46.31
2023-01-20T06:02:18.959Z,46.05
2023-01-20T06:04:46.863Z,46.40
2023-01-20T06:07:14.722Z,46.32
2023-01-20T06:09:42.036Z,46.20
2023-01-20T06:12:09.318Z,45.65
2023-01-20T06:14:36.963Z,45.50
2023-01-20T06:17:04.170Z,45.63
2023-01-20T06:19:33.989Z,45.62
2023-01-20T06:22:01.166Z,45.99
2023-01-20T06:24:28.444Z,45.74
2023-01-20T06:26:55.717Z,45.59
2023-01-20T06:29:22.944Z,45.43
2023-01-20T06:31:50.276Z,45.17
2023-01-20T06:34:17.475Z,45.12
2023-01-20T06:36:44.733Z,44.91
2023-01-20T06:39:12.024Z,44.90
2023-01-20T06:41:39.251Z,44.81
2023-01-20T06:44:06.427Z,44.63
2023-01-20T06:46:33.679Z,44.67
2023-01-20T06:49:01.146Z,44.14
2023-01-20T06:51:29.616Z,44.16
2023-01-20T06:53:57.050Z,44.19
2023-01-20T06:56:24.413Z,44.01
2023-01-20T06:58:52.216Z,44.02
2023-01-20T07:01:25.200Z,43.77
2023-01-20T07:03:52.738Z,43.59
2023-01-20T07:06:25.926Z,43.59
2023-01-20T07:08:53.245Z,43.60
2023-01-20T07:11:20.492Z,43.57
2023-01-20T07:13:48.103Z,43.71
2023-01-20T07:16:16.783Z,43.43
2023-01-20T07:18:44.817Z,43.00
2023-01-20T07:21:12.309Z,43.00
2023-01-20T07:23:39.521Z,43.07
2023-01-20T07:26:08.496Z,43.09
2023-01-20T07:28:35.837Z,43.07
2023-01-20T07:31:07.763Z,43.12
2023-01-20T07:33:35.225Z,42.86
2023-01-20T07:36:02.657Z,43.27
2023-01-20T07:38:29.999Z,43.52
2023-01-20T07:40:58.857Z,43.25
2023-01-20T07:43:26.248Z,43.27
2023-01-20T07:45:57.630Z,43.22
2023-01-20T07:48:25.915Z,43.20
2023-01-20T07:51:05.826Z,43.19
2023-01-20T07:53:37.092Z,43.09
2023-01-20T07:56:06.060Z,42.88
2023-01-20T07:58:33.562Z,42.91
2023-01-20T08:01:18.004Z,42.48
2023-01-20T08:03:45.393Z,42.10
2023-01-20T08:06:14.231Z,42.41
2023-01-20T08:08:41.448Z,42.36
2023-01-20T08:11:09.334Z,42.15
2023-01-20T08:13:36.839Z,41.99
2023-01-20T08:16:06.669Z,42.04
2023-01-20T08:18:34.127Z,41.93
2023-01-20T08:21:02.178Z,41.93
2023-01-20T08:23:29.375Z,42.13
2023-01-20T08:26:02.172Z,42.01
2023-01-20T08:28:30.149Z,41.48
2023-01-20T08:31:24.032Z,41.69
2023-01-20T08:33:55.567Z,41.76
2023-01-20T08:36:25.013Z,41.42
2023-01-20T08:38:52.396Z,41.34
2023-01-20T08:41:25.184Z,41.09
2023-01-20T08:43:52.416Z,40.99
2023-01-20T08:46:19.826Z,41.08
2023-01-20T08:48:48.311Z,41.03
2023-01-20T08:51:18.616Z,40.75
2023-01-20T08:53:46.098Z,40.49
2023-01-20T08:56:13.485Z,40.16
2023-01-20T08:58:40.679Z,39.95
2023-01-20T09:01:10.950Z,39.77
2023-01-20T09:03:38.414Z,39.26
2023-01-20T09:06:06.837Z,39.13
2023-01-20T09:08:34.276Z,38.81
2023-01-20T09:11:05.722Z,38.92
2023-01-20T09:13:32.989Z,38.58
2023-01-20T09:16:00.317Z,38.71
2023-01-20T09:18:27.783Z,38.33
2023-01-20T09:20:57.844Z,38.57
2023-01-20T09:23:25.571Z,37.96
2023-01-20T09:25:52.959Z,37.89
2023-01-20T09:28:20.339Z,37.98
2023-01-20T09:30:47.889Z,37.49
2023-01-20T09:33:15.290Z,37.36
2023-01-20T09:35:42.522Z,37.39
2023-01-20T09:38:28.453Z,37.16
2023-01-20T09:41:20.940Z,37.36
2023-01-20T09:43:57.225Z,37.37
2023-01-20T09:46:41.346Z,37.46
2023-01-20T09:49:33.830Z,37.29
2023-01-20T09:52:32.659Z,36.86
2023-01-20T09:55:03.481Z,37.13
2023-01-20T09:57:33.697Z,37.06
2023-01-20T10:00:04.450Z,37.13
2023-01-20T10:02:35.526Z,37.14
2023-01-20T10:05:08.443Z,36.87
2023-01-20T10:07:35.691Z,36.83
2023-01-20T10:10:02.908Z,36.76
2023-01-20T10:12:42.963Z,36.62
2023-01-20T10:15:15.197Z,36.46
2023-01-20T10:17:48.441Z,36.40
2023-01-20T10:20:39.606Z,36.46
2023-01-20T10:23:15.855Z,35.98
2023-01-20T10:26:13.444Z,35.95
2023-01-20T10:29:02.992Z,35.90
2023-01-20T10:31:37.533Z,36.18
2023-01-20T10:34:22.990Z,36.24
2023-01-20T10:36:59.590Z,36.02
2023-01-20T10:39:31.717Z,36.00
2023-01-20T10:42:09.198Z,36.07
2023-01-20T10:44:36.523Z,36.07
2023-01-20T10:47:26.440Z,36.11
2023-01-20T10:50:06.738Z,36.08
2023-01-20T10:52:36.947Z,36.11
2023-01-20T10:55:10.349Z,36.02
2023-01-20T10:57:38.627Z,36.16
2023-01-20T11:00:08.409Z,36.10
2023-01-20T11:02:38.084Z,35.97
2023-01-20T11:05:20.540Z,36.01
2023-01-20T11:07:47.701Z,36.03
2023-01-20T11:10:25.933Z,36.00
2023-01-20T11:12:57.579Z,36.69
2023-01-20T11:15:31.182Z,37.10
2023-01-20T11:18:21.127Z,37.79
2023-01-20T11:20:50.917Z,37.70
2023-01-20T11:23:38.371Z,37.89
2023-01-20T11:26:26.905Z,38.15
2023-01-20T11:29:02.541Z,38.37
2023-01-20T11:31:56.782Z,38.63
2023-01-20T11:34:23.967Z,38.90
2023-01-20T11:36:52.112Z,38.75
2023-01-20T11:39:31.029Z,38.92
2023-01-20T11:42:10.648Z,38.80
2023-01-20T11:44:47.357Z,38.68
2023-01-20T11:47:31.515Z,38.80
2023-01-20T11:50:05.093Z,39.02
2023-01-20T11:52:33.544Z,39.12
2023-01-20T11:55:14.362Z,39.06
2023-01-20T11:57:51.683Z,39.15
2023-01-20T12:00:19.008Z,39.24
2023-01-20T12:03:00.161Z,39.11
2023-01-20T12:05:44.147Z,39.14
2023-01-20T12:08:13.615Z,39.34
2023-01-20T12:10:40.927Z,39.46
2023-01-20T12:13:17.268Z,39.71
2023-01-20T12:15:46.314Z,39.95
2023-01-20T12:18:24.423Z,39.95
2023-01-20T12:21:18.362Z,40.43
2023-01-20T12:24:03.764Z,41.20
2023-01-20T12:26:32.538Z,41.06
2023-01-20T12:29:05.839Z,40.80
2023-01-20T12:31:33.279Z,40.95
2023-01-20T12:34:05.689Z,40.90
2023-01-20T12:36:38.972Z,41.30
2023-01-20T12:39:15.445Z,41.66
2023-01-20T12:42:03.055Z,42.02
2023-01-20T12:44:38.923Z,42.50
2023-01-20T12:47:14.696Z,42.58
2023-01-20T12:50:11.210Z,42.50
2023-01-20T12:53:03.377Z,42.99
2023-01-20T12:55:30.874Z,42.78
2023-01-20T12:58:20.542Z,42.59
2023-01-20T13:00:54.327Z,42.62
2023-01-20T13:03:51.156Z,42.89
2023-01-20T13:06:19.947Z,43.12
2023-01-20T13:09:16.411Z,43.25
2023-01-20T13:12:09.994Z,43.54
2023-01-20T13:14:45.711Z,43.52
2023-01-20T13:17:42.654Z,43.78
2023-01-20T13:20:23.639Z,43.79
2023-01-20T13:22:50.973Z,43.89
2023-01-20T13:25:19.303Z,43.83
2023-01-20T13:27:47.473Z,44.04
2023-01-20T13:30:37.585Z,44.28
2023-01-20T13:33:13.925Z,44.07
2023-01-20T13:35:43.102Z,43.99
2023-01-20T13:38:30.987Z,44.05
2023-01-20T13:41:03.532Z,44.18
2023-01-20T13:43:46.296Z,44.18
2023-01-20T13:46:15.350Z,43.89
2023-01-20T13:49:12.519Z,44.04
2023-01-20T13:51:39.707Z,43.87
2023-01-20T13:54:29.071Z,44.36
2023-01-20T13:57:23.973Z,44.55
2023-01-20T13:59:51.560Z,44.77
2023-01-20T14:02:23.809Z,44.86
2023-01-20T14:04:51.074Z,45.09
2023-01-20T14:07:25.723Z,45.46
2023-01-20T14:09:54.622Z,46.09
2023-01-20T14:12:22.092Z,46.21
2023-01-20T14:14:50.551Z,46.59
2023-01-20T14:17:19.263Z,46.72
2023-01-20T14:19:48.258Z,46.80
2023-01-20T14:22:30.320Z,46.83
2023-01-20T14:24:59.181Z,47.07
2023-01-20T14:27:42.190Z,47.12
2023-01-20T14:30:28.484Z,47.18
2023-01-20T14:32:55.797Z,47.30
2023-01-20T14:35:27.982Z,47.33
2023-01-20T14:37:55.228Z,47.46
2023-01-20T14:40:26.567Z,48.06
2023-01-20T14:43:16.057Z,48.29
2023-01-20T14:45:45.505Z,48.76
2023-01-20T14:48:24.686Z,48.85
2023-01-20T14:51:02.884Z,49.13
2023-01-20T14:53:30.130Z,49.20
2023-01-20T14:56:01.336Z,48.73
2023-01-20T14:58:30.801Z,48.92
2023-01-20T15:01:01.040Z,48.61
2023-01-20T15:03:28.715Z,48.71
2023-01-20T15:05:58.649Z,48.69
2023-01-20T15:08:35.685Z,49.00
2023-01-20T15:11:31.612Z,49.12
2023-01-20T15:14:01.875Z,49.24
2023-01-20T15:16:30.625Z,49.38
2023-01-20T15:19:17.010Z,49.54
2023-01-20T15:21:44.610Z,49.43
2023-01-20T15:24:20.916Z,49.19
2023-01-20T15:26:50.090Z,49.04
2023-01-20T15:29:26.726Z,49.24
2023-01-20T15:31:55.276Z,48.97
2023-01-20T15:34:23.354Z,49.23
2023-01-20T15:36:51.505Z,49.34
2023-01-20T15:39:20.882Z,49.34
2023-01-20T15:41:48.968Z,49.22
2023-01-20T15:44:16.342Z,49.18
2023-01-20T15:46:43.484Z,48.99
2023-01-20T15:49:15.358Z,49.04
2023-01-20T15:51:45.449Z,49.38
2023-01-20T15:54:13.950Z,49.30
2023-01-20T15:56:42.115Z,49.24
2023-01-20T15:59:13.328Z,49.02
2023-01-20T16:01:40.650Z,49.06
2023-01-20T16:04:07.923Z,49.55
2023-01-20T16:06:35.371Z,49.63
2023-01-20T16:09:03.726Z,49.61
2023-01-20T16:11:30.927Z,49.35
2023-01-20T16:13:58.235Z,49.07
2023-01-20T16:16:28.737Z,49.10
2023-01-20T16:18:56.785Z,49.00
2023-01-20T16:21:24.125Z,49.08
2023-01-20T16:23:51.281Z,49.25
2023-01-20T16:26:27.227Z,49.29
2023-01-20T16:28:56.223Z,49.54
2023-01-20T16:31:24.735Z,49.48
2023-01-20T16:33:52.892Z,49.31
2023-01-20T16:36:21.055Z,49.39
2023-01-20T16:38:48.606Z,49.75
2023-01-20T16:41:17.322Z,49.88
2023-01-20T16:43:44.596Z,50.00
2023-01-20T16:46:14.127Z,49.87
2023-01-20T16:48:41.417Z,49.99
2023-01-20T16:51:12.724Z,50.11
2023-01-20T16:53:40.166Z,50.22
2023-01-20T16:56:15.044Z,49.57
2023-01-20T16:58:43.172Z,49.61
2023-01-20T17:01:13.389Z,49.79
2023-01-20T17:03:41.616Z,49.87
2023-01-20T17:06:13.244Z,50.08
2023-01-20T17:08:45.329Z,49.87
2023-01-20T17:11:18.132Z,49.91
2023-01-20T17:13:45.429Z,50.04
2023-01-20T17:16:12.616Z,49.88
2023-01-20T17:18:44.951Z,49.95
2023-01-20T17:21:12.904Z,50.26
2023-01-20T17:23:40.734Z,50.15
2023-01-20T17:26:08.528Z,50.32
2023-01-20T17:28:35.885Z,50.65
2023-01-20T17:31:04.317Z,50.57
2023-01-20T17:33:31.789Z,50.68
2023-01-20T17:36:00.903Z,50.54
2023-01-20T17:38:28.911Z,50.29
2023-01-20T17:41:04.093Z,50.35
2023-01-20T17:43:33.052Z,50.38
2023-01-20T17:46:00.740Z,50.52
2023-01-20T17:48:28.180Z,50.42
2023-01-20T17:50:59.575Z,50.34
2023-01-20T17:53:27.038Z,50.52
2023-01-20T17:56:06.658Z,50.56
2023-01-20T17:58:38.466Z,50.70
2023-01-20T18:01:13.677Z,50.65
2023-01-20T18:03:42.976Z,50.54
2023-01-20T18:06:11.634Z,50.52
2023-01-20T18:08:38.878Z,50.50
2023-01-20T18:11:15.357Z,50.73
2023-01-20T18:13:42.722Z,50.83
2023-01-20T18:16:11.941Z,50.43
2023-01-20T18:18:40.058Z,50.51
2023-01-20T18:21:13.942Z,50.20
2023-01-20T18:23:41.347Z,50.00
2023-01-20T18:26:09.837Z,50.06
2023-01-20T18:28:37.093Z,50.22
2023-01-20T18:31:10.235Z,50.00
2023-01-20T18:33:40.529Z,50.07
2023-01-20T18:36:09.173Z,49.82
2023-01-20T18:38:36.898Z,50.01
2023-01-20T18:41:04.145Z,49.72
2023-01-20T18:43:32.567Z,49.33
2023-01-20T18:45:59.800Z,49.25
2023-01-20T18:48:27.102Z,49.89
2023-01-20T18:51:00.032Z,49.61
2023-01-20T18:53:30.558Z,49.49
2023-01-20T18:56:01.934Z,49.54
2023-01-20T18:58:29.253Z,49.67
2023-01-20T19:01:08.206Z,49.55
2023-01-20T19:03:35.527Z,49.54
2023-01-20T19:06:08.461Z,49.68
2023-01-20T19:08:35.545Z,49.93
2023-01-20T19:11:04.645Z,49.36
2023-01-20T19:13:32.286Z,49.52
2023-01-20T19:15:59.591Z,49.41
2023-01-20T19:18:26.885Z,49.30
2023-01-20T19:20:54.178Z,49.08
2023-01-20T19:23:21.760Z,49.22
2023-01-20T19:25:49.715Z,49.42
2023-01-20T19:28:18.371Z,49.15
2023-01-20T19:30:45.668Z,49.10
2023-01-20T19:33:13.067Z,48.85
2023-01-20T19:35:42.081Z,48.82
2023-01-20T19:38:09.501Z,48.97
2023-01-20T19:40:36.666Z,48.64
2023-01-20T19:43:03.995Z,48.70
2023-01-20T19:45:44.903Z,48.68
2023-01-20T19:48:12.969Z,48.85
2023-01-20T19:50:40.317Z,48.87
2023-01-20T19:53:07.569Z,48.58
2023-01-20T19:55:34.887Z,48.81
2023-01-20T19:58:05.158Z,49.17
2023-01-20T20:00:32.439Z,48.92
2023-01-20T20:03:03.302Z,48.79
2023-01-20T20:05:33.099Z,48.66
2023-01-20T20:08:00.931Z,48.48
2023-01-20T20:10:28.225Z,48.32
2023-01-20T20:12:57.815Z,48.17
2023-01-20T20:15:25.062Z,48.25
2023-01-20T20:17:55.063Z,48.15
2023-01-20T20:20:22.351Z,48.14
2023-01-20T20:22:49.594Z,48.07
2023-01-20T20:25:16.960Z,48.21
2023-01-20T20:27:44.248Z,48.66
2023-01-20T20:30:11.908Z,48.49
2023-01-20T20:32:39.207Z,48.78
2023-01-20T20:35:06.927Z,48.97
2023-01-20T20:37:34.216Z,48.81
2023-01-20T20:40:01.531Z,48.91
2023-01-20T20:42:28.897Z,48.96
2023-01-20T20:44:56.646Z,48.96
2023-01-20T20:47:26.304Z,49.18
2023-01-20T20:49:54.508Z,49.08
2023-01-20T20:52:22.040Z,49.04
2023-01-20T20:54:49.835Z,49.29
2023-01-20T20:57:16.995Z,49.29
2023-01-20T20:59:58.232Z,49.24
2023-01-20T21:02:26.124Z,49.21
2023-01-20T21:04:53.545Z,49.15
2023-01-20T21:07:20.851Z,49.23
2023-01-20T21:09:48.202Z,49.41
2023-01-20T21:12:15.471Z,49.50
2023-01-20T21:14:43.524Z,49.54
2023-01-20T21:17:10.782Z,49.62
2023-01-20T21:19:37.946Z,49.55
2023-01-20T21:22:06.273Z,49.55
2023-01-20T21:24:33.543Z,49.76
2023-01-20T21:27:00.850Z,49.58
2023-01-20T21:29:28.163Z,49.44
2023-01-20T21:31:55.513Z,49.64
2023-01-20T21:34:22.835Z,49.73
2023-01-20T21:36:50.044Z,49.63
2023-01-20T21:39:17.730Z,49.68
2023-01-20T21:41:45.090Z,49.63
2023-01-20T21:44:33.104Z,49.36
2023-01-20T21:47:04.542Z,49.53
2023-01-20T21:49:50.466Z,49.65
2023-01-20T21:52:38.409Z,49.88
2023-01-20T21:55:06.315Z,49.99
2023-01-20T21:57:33.579Z,49.83
2023-01-20T22:00:01.135Z,49.71
2023-01-20T22:02:39.554Z,49.68
2023-01-20T22:05:07.326Z,49.25
2023-01-20T22:07:35.513Z,49.31
2023-01-20T22:10:03.164Z,49.02
2023-01-20T22:12:34.031Z,48.85
2023-01-20T22:15:03.245Z,48.83
2023-01-20T22:17:30.754Z,48.62
2023-01-20T22:19:58.032Z,48.66
2023-01-20T22:22:25.289Z,48.90
2023-01-20T22:24:53.418Z,49.01
2023-01-20T22:27:20.922Z,49.17
2023-01-20T22:29:48.234Z,49.30
2023-01-20T22:32:15.522Z,49.68
2023-01-20T22:34:42.759Z,49.77
2023-01-20T22:37:09.978Z,49.76
2023-01-20T22:39:37.129Z,50.17
2023-01-20T22:42:04.563Z,50.47
2023-01-20T22:44:31.880Z,50.46
2023-01-20T22:46:59.109Z,50.72
2023-01-20T22:49:26.482Z,50.77
2023-01-20T22:51:55.175Z,50.84
2023-01-20T22:54:22.465Z,50.48
2023-01-20T22:56:49.623Z,50.35
2023-01-20T22:59:16.886Z,50.12
2023-01-20T23:01:44.003Z,49.91
2023-01-20T23:04:11.607Z,50.14
2023-01-20T23:06:39.550Z,50.17
2023-01-20T23:09:08.932Z,50.15
2023-01-20T23:11:38.447Z,50.35
2023-01-20T23:14:06.587Z,50.39
2023-01-20T23:16:33.956Z,50.61
2023-01-20T23:19:01.280Z,50.70
2023-01-20T23:21:28.565Z,50.25
2023-01-20T23:23:56.062Z,50.30
2023-01-20T23:26:25.039Z,50.28
2023-01-20T23:28:53.889Z,50.19
2023-01-20T23:31:21.896Z,50.04
2023-01-20T23:33:49.295Z,50.30
2023-01-20T23:36:21.449Z,49.76
2023-01-20T23:38:48.807Z,49.55
2023-01-20T23:41:16.527Z,49.66
2023-01-20T23:43:44.902Z,49.90
2023-01-20T23:46:12.196Z,50.05
2023-01-20T23:48:39.515Z,50.14
2023-01-20T23:51:07.235Z,49.76
2023-01-20T23:53:37.844Z,49.85
2023-01-20T23:56:07.071Z,50.16
2023-01-20T23:58:34.255Z,49.90
